Time;durP1;ratioP1;P1;durP2;ratioP2;P2;SDS_P1;SDS_P2;PMS_P1;PMS_P2;Temp;Humidity;BMP_temperature;BMP_pressure;BME280_temperature;BME280_humidity;BME280_pressure;Samples;Min_cycle;Max_cycle;Signal;HPM_P1;HPM_P2
2023/03/20 00:00:54;;;;;;;18.60;7.83;;;;;;;4.86;nan;-23952.44;5016462;28;20168;-70
2023/03/20 00:03:19;;;;;;;16.40;7.77;;;;;;;4.88;nan;-23953.00;5015062;28;20184;-71
2023/03/20 00:05:45;;;;;;;14.03;7.13;;;;;;;4.83;nan;-23951.44;5008464;28;20582;-71
2023/03/20 00:08:11;;;;;;;11.97;6.23;;;;;;;4.71;nan;-23948.16;5015230;28;20639;-71
2023/03/20 00:10:42;;;;;;;19.97;8.03;;;;;;;4.77;nan;-23949.72;5015138;28;20180;-71
2023/03/20 00:13:13;;;;;;;19.33;7.80;;;;;;;4.71;nan;-23948.03;5015077;28;20645;-71
2023/03/20 00:15:41;;;;;;;11.07;6.17;;;;;;;4.75;nan;-23949.31;5014760;28;20259;-72
2023/03/20 00:18:17;;;;;;;14.57;5.50;;;;;;;4.74;nan;-23949.00;5015163;28;20654;-70
2023/03/20 00:20:44;;;;;;;15.07;7.17;;;;;;;5.13;nan;-23959.97;5015217;28;20180;-72
2023/03/20 00:23:10;;;;;;;12.33;7.27;;;;;;;5.03;nan;-23957.13;5014847;28;20666;-71
2023/03/20 00:25:37;;;;;;;11.10;6.13;;;;;;;5.01;nan;-23956.41;5014369;28;20191;-71
2023/03/20 00:28:32;;;;;;;12.00;6.07;;;;;;;4.85;nan;-23952.00;5014950;28;20165;-71
2023/03/20 00:30:57;;;;;;;10.53;6.60;;;;;;;5.02;nan;-23956.69;5017827;28;20188;-71
2023/03/20 00:33:23;;;;;;;15.27;6.57;;;;;;;4.99;nan;-23955.84;5030133;28;20235;-72
2023/03/20 00:35:48;;;;;;;14.43;5.60;;;;;;;5.02;nan;-23956.69;5014610;28;20495;-70
2023/03/20 00:38:14;;;;;;;13.33;6.13;;;;;;;4.48;nan;-23941.63;5014666;28;20225;-71
2023/03/20 00:40:40;;;;;;;13.83;6.53;;;;;;;4.83;nan;-23951.56;5029327;28;20176;-71
2023/03/20 00:43:06;;;;;;;11.63;6.63;;;;;;;4.80;nan;-23950.56;5014903;28;20211;-71
2023/03/20 00:45:34;;;;;;;15.40;6.03;;;;;;;4.50;nan;-23942.03;5014207;28;20183;-70
2023/03/20 00:48:00;;;;;;;9.27;5.97;;;;;;;4.99;nan;-23955.84;5011677;28;20191;-71
2023/03/20 00:50:32;;;;;;;11.43;6.60;;;;;;;5.01;nan;-23956.56;5014435;28;20172;-71
2023/03/20 00:52:58;;;;;;;13.20;7.30;;;;;;;4.68;nan;-23947.31;5013250;28;20210;-72
2023/03/20 00:55:27;;;;;;;11.83;6.70;;;;;;;4.71;nan;-23948.16;5014004;28;20172;-71
2023/03/20 00:57:56;;;;;;;14.53;6.30;;;;;;;4.79;nan;-23950.28;5015515;28;20278;-71
2023/03/20 01:00:33;;;;;;;11.90;5.73;;;;;;;4.87;nan;-23952.72;5014705;28;20172;-71
2023/03/20 01:02:59;;;;;;;12.07;5.07;;;;;;;4.71;nan;-23948.03;5012933;28;20184;-71
2023/03/20 01:05:27;;;;;;;13.97;6.47;;;;;;;4.76;nan;-23949.44;5014060;28;20176;-70
2023/03/20 01:07:53;;;;;;;10.37;5.57;;;;;;;5.00;nan;-23956.25;5013959;28;20176;-72
2023/03/20 01:10:19;;;;;;;15.10;7.63;;;;;;;5.04;nan;-23957.41;5014073;28;20242;-71
2023/03/20 01:12:46;;;;;;;8.13;4.97;;;;;;;4.93;nan;-23954.28;5013610;28;20643;-71
2023/03/20 01:15:19;;;;;;;12.13;6.70;;;;;;;4.68;nan;-23947.16;5013909;28;20267;-71
2023/03/20 01:17:45;;;;;;;13.87;6.67;;;;;;;4.99;nan;-23955.84;5010027;28;20579;-71
2023/03/20 01:20:17;;;;;;;12.17;5.70;;;;;;;4.83;nan;-23951.44;5028641;28;20219;-71
2023/03/20 01:22:43;;;;;;;10.20;5.57;;;;;;;4.89;nan;-23953.13;5013731;28;20220;-71
2023/03/20 01:25:09;;;;;;;15.00;6.33;;;;;;;4.52;nan;-23942.75;5013604;28;20733;-71
2023/03/20 01:27:34;;;;;;;10.50;6.10;;;;;;;4.75;nan;-23949.16;5012821;28;20187;-71
2023/03/20 01:30:00;;;;;;;10.63;5.90;;;;;;;4.80;nan;-23950.72;5011612;28;20651;-72
2023/03/20 01:32:25;;;;;;;8.27;4.60;;;;;;;4.44;nan;-23940.63;5011894;28;20171;-70
2023/03/20 01:34:51;;;;;;;11.87;5.57;;;;;;;4.70;nan;-23947.88;5012758;28;20651;-72
2023/03/20 01:37:25;;;;;;;16.10;7.13;;;;;;;4.68;nan;-23947.16;5013298;28;20226;-71
2023/03/20 01:39:52;;;;;;;12.23;5.90;;;;;;;4.24;nan;-23934.91;5013208;28;20187;-71
2023/03/20 01:42:18;;;;;;;11.13;5.00;;;;;;;4.18;nan;-23933.22;5013192;28;20303;-71
2023/03/20 01:44:44;;;;;;;8.17;4.67;;;;;;;4.13;nan;-23931.78;5028141;28;20176;-73
2023/03/20 01:47:19;;;;;;;11.63;5.60;;;;;;;4.47;nan;-23941.31;5012832;28;20168;-71
2023/03/20 01:50:21;;;;;;;26.93;5.97;;;;;;;4.39;nan;-23939.06;5013198;28;20206;-71
2023/03/20 01:52:50;;;;;;;9.10;4.40;;;;;;;4.16;nan;-23932.63;5011153;28;20199;-72
2023/03/20 01:55:16;;;;;;;9.87;5.43;;;;;;;4.10;nan;-23930.94;5012976;28;20647;-73
2023/03/20 01:57:42;;;;;;;16.30;6.17;;;;;;;4.02;nan;-23928.66;5011873;28;20230;-71
2023/03/20 02:00:14;;;;;;;9.87;5.73;;;;;;;4.04;nan;-23929.09;5012580;28;20187;-71
2023/03/20 02:02:40;;;;;;;9.20;4.53;;;;;;;4.25;nan;-23935.22;5013340;28;20650;-71
2023/03/20 02:05:09;;;;;;;12.47;5.50;;;;;;;4.20;nan;-23933.63;5013004;28;20180;-71
2023/03/20 02:07:36;;;;;;;9.47;5.10;;;;;;;4.10;nan;-23930.78;5013175;28;20160;-72
2023/03/20 02:10:10;;;;;;;22.47;5.00;;;;;;;3.81;nan;-23922.66;5013049;28;20180;-70
2023/03/20 02:12:36;;;;;;;7.63;5.20;;;;;;;3.88;nan;-23924.81;5012863;28;20262;-71
2023/03/20 02:15:03;;;;;;;7.67;5.57;;;;;;;3.86;nan;-23924.25;5012646;28;20199;-70
2023/03/20 02:17:28;;;;;;;8.60;5.77;;;;;;;3.86;nan;-23924.25;5011665;28;20234;-71
2023/03/20 02:20:10;;;;;;;9.47;4.90;;;;;;;3.43;nan;-23912.13;5012552;28;20176;-71
2023/03/20 02:23:06;;;;;;;6.77;4.33;;;;;;;3.72;nan;-23920.25;5012825;28;20226;-71
2023/03/20 02:25:56;;;;;;;6.40;5.37;;;;;;;3.60;nan;-23916.69;5012799;28;20176;-70
2023/03/20 02:29:00;;;;;;;7.47;4.73;;;;;;;3.31;nan;-23908.72;5012707;28;20237;-72
2023/03/20 02:32:02;;;;;;;7.73;4.07;;;;;;;3.28;nan;-23907.72;5005698;28;20199;-72
2023/03/20 02:34:56;;;;;;;8.20;4.43;;;;;;;3.32;nan;-23909.00;4998277;28;20258;-71
2023/03/20 02:37:49;;;;;;;8.00;4.93;;;;;;;3.32;nan;-23909.00;5012174;28;20259;-70
2023/03/20 02:40:34;;;;;;;11.60;6.63;;;;;;;3.39;nan;-23910.97;5012519;28;20279;-70
2023/03/20 02:43:05;;;;;;;11.60;5.33;;;;;;;3.27;nan;-23907.56;5012358;28;20174;-72
2023/03/20 02:45:38;;;;;;;14.00;7.03;;;;;;;2.91;nan;-23897.44;5012183;28;20175;-71
2023/03/20 02:48:46;;;;;;;11.43;5.90;;;;;;;2.66;nan;-23890.44;5012079;28;20163;-72
2023/03/20 02:52:01;;;;;;;8.50;5.40;;;;;;;2.97;nan;-23899.00;5011131;28;20677;-72
2023/03/20 02:54:37;;;;;;;6.07;4.67;;;;;;;2.97;nan;-23899.16;5007480;28;20226;-71
2023/03/20 02:57:06;;;;;;;13.87;5.23;;;;;;;2.96;nan;-23898.72;5012051;28;20678;-71
2023/03/20 02:59:42;;;;;;;8.43;5.97;;;;;;;2.54;nan;-23886.88;5012780;28;20238;-73
2023/03/20 03:02:11;;;;;;;9.87;5.63;;;;;;;2.98;nan;-23899.44;5012590;28;20646;-71
2023/03/20 03:04:48;;;;;;;7.30;4.83;;;;;;;2.58;nan;-23888.16;5013153;28;20185;-71
2023/03/20 03:07:21;;;;;;;17.40;5.40;;;;;;;2.58;nan;-23888.16;5004857;28;20210;-71
2023/03/20 03:09:54;;;;;;;13.30;5.53;;;;;;;2.95;nan;-23898.44;5010155;28;20218;-71
2023/03/20 03:12:28;;;;;;;12.40;5.85;;;;;;;2.85;nan;-23895.59;5011869;28;20623;-72
2023/03/20 03:14:58;;;;;;;12.00;5.53;;;;;;;2.65;nan;-23890.00;5012420;28;20183;-71
2023/03/20 03:17:27;;;;;;;8.80;5.00;;;;;;;2.42;nan;-23883.59;5027223;28;20661;-70
2023/03/20 03:19:59;;;;;;;8.07;5.50;;;;;;;2.78;nan;-23893.72;5027278;28;20607;-72
2023/03/20 03:22:25;;;;;;;11.20;5.53;;;;;;;2.89;nan;-23896.88;5026995;28;20220;-72
2023/03/20 03:24:53;;;;;;;11.80;5.27;;;;;;;2.51;nan;-23886.16;5011788;28;20557;-71
2023/03/20 03:27:23;;;;;;;5.13;4.57;;;;;;;2.89;nan;-23896.72;5011850;28;20266;-72
2023/03/20 03:29:54;;;;;;;6.93;4.90;;;;;;;2.64;nan;-23889.72;5012131;28;20257;-70
2023/03/20 03:32:30;;;;;;;12.13;5.57;;;;;;;2.75;nan;-23892.88;5012074;28;20229;-71
2023/03/20 03:34:58;;;;;;;7.63;4.67;;;;;;;2.72;nan;-23892.03;5010871;28;20604;-72
2023/03/20 03:37:43;;;;;;;7.33;4.43;;;;;;;2.58;nan;-23888.16;5011730;28;20614;-72
2023/03/20 03:40:42;;;;;;;10.10;4.03;;;;;;;2.64;nan;-23889.88;5012214;28;20181;-71
2023/03/20 03:43:16;;;;;;;12.87;4.57;;;;;;;2.23;nan;-23878.31;5011901;28;20210;-70
2023/03/20 03:45:48;;;;;;;7.17;3.37;;;;;;;2.39;nan;-23882.75;5011829;28;20182;-71
2023/03/20 03:48:20;;;;;;;12.87;5.30;;;;;;;2.54;nan;-23886.88;5005010;28;20249;-71
2023/03/20 03:51:02;;;;;;;7.17;4.47;;;;;;;2.45;nan;-23884.31;5012684;28;20178;-72
2023/03/20 03:53:37;;;;;;;6.23;4.03;;;;;;;2.37;nan;-23882.16;5044746;28;20344;-72
2023/03/20 03:56:07;;;;;;;6.77;3.53;;;;;;;2.44;nan;-23884.03;5012020;28;20193;-73
2023/03/20 03:58:50;;;;;;;4.80;3.70;;;;;;;2.50;nan;-23885.88;5012070;28;20230;-74
2023/03/20 04:01:17;;;;;;;6.13;4.17;;;;;;;2.37;nan;-23882.03;5011349;28;20182;-70
2023/03/20 04:03:49;;;;;;;9.07;4.33;;;;;;;2.37;nan;-23882.16;5011921;28;20199;-71
2023/03/20 04:06:16;;;;;;;6.03;3.97;;;;;;;2.39;nan;-23882.75;5010562;28;20192;-71
2023/03/20 04:08:42;;;;;;;3.63;3.13;;;;;;;2.68;nan;-23890.88;5010735;28;20641;-72
2023/03/20 04:11:16;;;;;;;10.33;4.67;;;;;;;2.55;nan;-23887.31;5010414;28;20189;-72
2023/03/20 04:13:43;;;;;;;6.77;3.87;;;;;;;2.43;nan;-23883.88;5011948;28;20305;-71
2023/03/20 04:16:13;;;;;;;10.37;4.43;;;;;;;2.05;nan;-23873.16;5011605;28;20182;-71
2023/03/20 04:18:39;;;;;;;3.73;3.20;;;;;;;2.40;nan;-23883.03;5011762;28;20177;-71
2023/03/20 04:21:05;;;;;;;6.77;3.47;;;;;;;2.28;nan;-23879.59;5013164;28;20181;-71
2023/03/20 04:23:31;;;;;;;16.40;4.30;;;;;;;2.21;nan;-23877.75;5017861;28;20589;-72
2023/03/20 04:25:56;;;;;;;6.43;4.37;;;;;;;1.95;nan;-23870.16;5000942;28;20254;-71
2023/03/20 04:28:22;;;;;;;8.80;5.43;;;;;;;2.08;nan;-23873.88;5000731;28;20207;-72
2023/03/20 04:30:58;;;;;;;5.50;3.77;;;;;;;2.27;nan;-23879.16;5000798;28;20190;-71
2023/03/20 04:33:25;;;;;;;6.60;3.43;;;;;;;2.05;nan;-23873.03;4999960;28;20325;-70
2023/03/20 04:35:51;;;;;;;7.07;4.07;;;;;;;2.26;nan;-23878.88;5001254;28;20658;-71
2023/03/20 04:38:17;;;;;;;10.60;3.80;;;;;;;2.05;nan;-23873.03;4999177;28;20638;-71
2023/03/20 04:40:44;;;;;;;11.00;4.53;;;;;;;2.14;nan;-23875.59;5000507;28;20945;-72
2023/03/20 04:43:09;;;;;;;6.70;3.70;;;;;;;2.26;nan;-23879.03;5000110;28;20308;-71
2023/03/20 04:45:35;;;;;;;13.93;4.03;;;;;;;2.01;nan;-23871.88;5001125;28;20183;-71
2023/03/20 04:48:01;;;;;;;7.20;4.17;;;;;;;1.96;nan;-23870.59;5001341;28;20190;-72
2023/03/20 04:50:26;;;;;;;6.53;4.53;;;;;;;2.14;nan;-23875.75;5000892;28;20644;-71
2023/03/20 04:52:52;;;;;;;3.83;3.10;;;;;;;2.07;nan;-23873.75;5000593;28;20213;-70
2023/03/20 04:55:17;;;;;;;8.23;4.70;;;;;;;2.36;nan;-23881.88;5013933;28;20548;-72
2023/03/20 04:57:43;;;;;;;9.20;4.90;;;;;;;2.17;nan;-23876.59;5001690;28;20232;-72
2023/03/20 05:00:09;;;;;;;8.73;4.20;;;;;;;2.54;nan;-23887.03;5013106;28;20629;-71
2023/03/20 05:02:35;;;;;;;9.50;3.97;;;;;;;2.42;nan;-23883.59;4998202;28;20249;-72
2023/03/20 05:05:01;;;;;;;8.93;3.90;;;;;;;2.37;nan;-23882.16;4998520;28;20203;-72
2023/03/20 05:07:26;;;;;;;4.77;3.73;;;;;;;2.86;nan;-23896.00;5000632;28;20244;-72
2023/03/20 05:09:52;;;;;;;5.87;4.00;;;;;;;2.93;nan;-23897.88;5001289;28;20183;-71
2023/03/20 05:12:17;;;;;;;7.63;4.40;;;;;;;3.20;nan;-23905.56;5000441;28;20187;-72
2023/03/20 05:14:42;;;;;;;5.87;4.10;;;;;;;3.29;nan;-23908.00;4999745;28;20222;-72
2023/03/20 05:17:08;;;;;;;10.03;4.23;;;;;;;3.14;nan;-23903.72;4999840;28;20635;-71
2023/03/20 05:19:33;;;;;;;12.07;3.27;;;;;;;3.43;nan;-23912.13;5021866;28;20187;-72
2023/03/20 05:22:00;;;;;;;10.20;4.30;;;;;;;3.44;nan;-23912.41;5013614;28;20172;-72
2023/03/20 05:24:27;;;;;;;5.43;3.77;;;;;;;3.70;nan;-23919.53;5044532;28;20554;-71
2023/03/20 05:26:53;;;;;;;10.43;5.03;;;;;;;4.13;nan;-23931.78;5013622;28;20265;-70
2023/03/20 05:29:19;;;;;;;8.50;5.50;;;;;;;4.23;nan;-23934.63;5011457;28;20179;-70
2023/03/20 05:31:45;;;;;;;6.97;3.97;;;;;;;4.40;nan;-23939.34;5012621;28;20182;-72
2023/03/20 05:34:10;;;;;;;7.73;4.37;;;;;;;4.23;nan;-23934.50;5012151;28;20254;-72
2023/03/20 05:36:35;;;;;;;14.43;5.00;;;;;;;4.57;nan;-23944.03;5007271;28;20540;-71
2023/03/20 05:39:01;;;;;;;9.70;5.13;;;;;;;4.34;nan;-23937.78;5013992;28;20240;-72
2023/03/20 05:41:26;;;;;;;6.43;4.60;;;;;;;4.23;nan;-23934.63;5028130;28;20180;-71
2023/03/20 05:43:52;;;;;;;6.33;4.00;;;;;;;4.23;nan;-23934.63;5012662;28;20691;-71
2023/03/20 05:46:17;;;;;;;5.90;4.60;;;;;;;4.43;nan;-23940.34;5010119;28;20210;-73
2023/03/20 05:48:43;;;;;;;7.70;4.30;;;;;;;4.95;nan;-23954.84;5008302;28;20191;-71
2023/03/20 05:51:08;;;;;;;7.07;5.00;;;;;;;5.15;nan;-23960.41;5009444;28;20214;-72
2023/03/20 05:53:33;;;;;;;7.33;4.47;;;;;;;4.91;nan;-23953.72;5012644;28;20273;-71
2023/03/20 05:55:59;;;;;;;6.93;4.57;;;;;;;5.06;nan;-23957.84;5011334;28;20230;-72
2023/03/20 05:58:25;;;;;;;7.10;4.33;;;;;;;5.48;nan;-23969.78;5013992;28;20240;-71
2023/03/20 06:00:50;;;;;;;6.73;4.70;;;;;;;5.93;nan;-23982.28;5011199;28;20295;-72
2023/03/20 06:03:15;;;;;;;9.07;4.97;;;;;;;6.04;nan;-23985.41;5011187;28;20234;-73
2023/03/20 06:05:41;;;;;;;7.40;4.83;;;;;;;5.85;nan;-23980.16;5012645;28;20219;-73
2023/03/20 06:08:06;;;;;;;9.10;5.17;;;;;;;5.95;nan;-23982.84;5011795;28;20188;-73
2023/03/20 06:10:32;;;;;;;13.97;6.10;;;;;;;5.81;nan;-23978.88;5012207;28;20217;-72
2023/03/20 06:12:59;;;;;;;9.63;5.13;;;;;;;6.04;nan;-23985.41;5012833;28;20298;-72
2023/03/20 06:15:27;;;;;;;6.77;4.43;;;;;;;6.34;nan;-23993.78;5012089;28;20176;-72
2023/03/20 06:17:53;;;;;;;6.90;4.50;;;;;;;6.45;nan;-23996.91;5012372;28;20715;-72
2023/03/20 06:20:18;;;;;;;6.67;4.40;;;;;;;6.39;nan;-23995.34;5012075;28;20305;-73
2023/03/20 06:22:44;;;;;;;8.10;4.70;;;;;;;6.78;nan;-24006.13;5012179;28;20184;-73
2023/03/20 06:25:10;;;;;;;10.10;4.63;;;;;;;7.04;nan;-24013.50;5043947;28;20180;-71
2023/03/20 06:27:35;;;;;;;7.73;4.77;;;;;;;6.94;nan;-24010.81;5011934;28;20183;-72
2023/03/20 06:30:00;;;;;;;8.07;4.90;;;;;;;6.86;nan;-24008.56;5011943;28;20178;-70
2023/03/20 06:32:26;;;;;;;6.33;4.07;;;;;;;7.14;nan;-24016.22;5012112;28;20176;-70
2023/03/20 06:34:52;;;;;;;11.27;4.30;;;;;;;7.81;nan;-24035.22;5011451;28;20262;-71
2023/03/20 06:37:18;;;;;;;11.30;6.13;;;;;;;7.99;nan;-24040.31;5043522;28;20285;-71
2023/03/20 06:39:43;;;;;;;10.43;4.93;;;;;;;7.60;nan;-24029.25;5011659;28;20226;-71
2023/03/20 06:42:09;;;;;;;11.27;5.40;;;;;;;7.89;nan;-24037.31;5010599;28;20270;-71
2023/03/20 06:44:34;;;;;;;5.43;4.30;;;;;;;8.24;nan;-24047.25;5011979;28;20616;-72
2023/03/20 06:47:00;;;;;;;5.17;4.30;;;;;;;8.37;nan;-24050.94;5011782;28;20172;-71
2023/03/20 06:49:26;;;;;;;11.20;4.53;;;;;;;8.76;nan;-24061.69;5011505;28;20302;-71
2023/03/20 06:51:52;;;;;;;9.47;4.93;;;;;;;8.87;nan;-24064.78;5011532;28;20551;-71
2023/03/20 06:54:18;;;;;;;5.90;4.43;;;;;;;9.10;nan;-24071.16;5010320;28;20212;-72
2023/03/20 06:56:43;;;;;;;12.63;5.97;;;;;;;8.97;nan;-24067.47;5010174;28;20246;-70
2023/03/20 06:59:08;;;;;;;10.73;4.97;;;;;;;9.21;nan;-24074.25;5012946;28;20176;-70
2023/03/20 07:01:34;;;;;;;9.27;4.67;;;;;;;9.52;nan;-24083.03;5012272;28;20180;-71
2023/03/20 07:04:00;;;;;;;6.23;4.30;;;;;;;9.51;nan;-24082.75;5010967;28;20266;-71
2023/03/20 07:06:26;;;;;;;10.13;4.70;;;;;;;9.54;nan;-24083.59;5010538;28;20176;-68
2023/03/20 07:08:51;;;;;;;10.60;5.23;;;;;;;9.94;nan;-24094.75;5012202;28;20190;-68
2023/03/20 07:11:17;;;;;;;8.00;4.23;;;;;;;10.33;nan;-24105.63;5011656;28;20218;-68
2023/03/20 07:13:43;;;;;;;10.50;5.50;;;;;;;10.41;nan;-24107.88;5010559;28;20730;-68
2023/03/20 07:16:09;;;;;;;10.30;4.83;;;;;;;10.42;nan;-24108.16;5011938;28;20176;-70
2023/03/20 07:18:35;;;;;;;11.00;5.78;;;;;;;11.00;nan;-24124.41;5011800;28;20666;-68
2023/03/20 07:21:03;;;;;;;10.70;5.18;;;;;;;11.14;nan;-24128.19;5012022;28;20262;-68
2023/03/20 07:23:29;;;;;;;13.15;5.95;;;;;;;11.16;nan;-24128.63;5012190;28;20180;-67
2023/03/20 07:25:55;;;;;;;11.00;5.50;;;;;;;11.16;nan;-24128.63;5011752;28;20530;-69
2023/03/20 07:28:20;;;;;;;8.52;5.03;;;;;;;11.35;nan;-24134.13;5011505;28;20176;-71
2023/03/20 07:30:46;;;;;;;9.13;5.65;;;;;;;11.11;nan;-24127.22;5011962;28;20167;-69
2023/03/20 07:33:12;;;;;;;13.00;5.78;;;;;;;11.15;nan;-24128.47;5011576;28;20259;-68
2023/03/20 07:35:38;;;;;;;14.85;6.43;;;;;;;11.47;nan;-24137.50;5011721;28;20266;-69
2023/03/20 07:38:04;;;;;;;11.80;5.70;;;;;;;11.82;nan;-24147.09;5011941;28;20211;-67
2023/03/20 07:40:30;;;;;;;12.55;6.53;;;;;;;11.95;nan;-24150.88;5011715;28;20176;-70
2023/03/20 07:42:56;;;;;;;9.75;5.82;;;;;;;12.43;nan;-24164.13;5011660;28;20318;-69
2023/03/20 07:45:21;;;;;;;12.27;6.53;;;;;;;12.56;nan;-24167.78;5011651;28;20251;-68
2023/03/20 07:47:47;;;;;;;9.85;5.55;;;;;;;12.81;nan;-24174.66;5011175;28;20200;-70
2023/03/20 07:50:13;;;;;;;22.25;7.30;;;;;;;12.29;nan;-24160.31;5011715;28;20168;-69
2023/03/20 07:52:38;;;;;;;11.30;6.05;;;;;;;12.31;nan;-24160.75;5011353;28;20584;-68
2023/03/20 07:55:04;;;;;;;17.75;6.57;;;;;;;12.49;nan;-24165.66;5011430;28;20738;-69
2023/03/20 07:57:30;;;;;;;12.68;7.07;;;;;;;12.53;nan;-24166.78;5014729;28;20786;-69
2023/03/20 07:59:55;;;;;;;13.45;6.82;;;;;;;12.81;nan;-24174.66;5015474;28;20247;-68
2023/03/20 08:02:21;;;;;;;15.25;6.95;;;;;;;12.61;nan;-24169.19;5015011;28;20180;-69
2023/03/20 08:04:46;;;;;;;12.32;7.03;;;;;;;12.99;nan;-24179.59;5015531;28;20168;-71
2023/03/20 08:07:12;;;;;;;12.13;6.97;;;;;;;12.55;nan;-24167.34;5015291;28;20620;-70
2023/03/20 08:09:37;;;;;;;15.88;7.65;;;;;;;12.86;nan;-24176.06;5015551;28;20178;-69
2023/03/20 08:12:03;;;;;;;15.88;7.63;;;;;;;12.64;nan;-24169.88;5015100;28;20183;-68
2023/03/20 08:14:29;;;;;;;13.30;7.72;;;;;;;12.72;nan;-24172.13;5015117;28;20203;-67
2023/03/20 08:16:55;;;;;;;16.38;8.23;;;;;;;13.45;nan;-24192.53;5015055;28;20172;-70
2023/03/20 08:19:20;;;;;;;16.75;9.25;;;;;;;12.92;nan;-24177.75;5015199;28;20539;-67
2023/03/20 08:21:46;;;;;;;17.00;8.90;;;;;;;12.97;nan;-24179.03;5015279;28;20522;-70
2023/03/20 08:24:11;;;;;;;20.00;10.55;;;;;;;13.16;nan;-24184.50;5015023;28;20187;-68
2023/03/20 08:26:37;;;;;;;21.98;9.93;;;;;;;12.94;nan;-24178.19;5014889;28;20180;-67
2023/03/20 08:29:03;;;;;;;23.33;10.18;;;;;;;12.86;nan;-24176.06;5014760;28;20179;-68
2023/03/20 08:31:28;;;;;;;15.57;7.85;;;;;;;12.79;nan;-24174.09;5014740;28;20191;-67
2023/03/20 08:33:54;;;;;;;20.00;7.35;;;;;;;13.31;nan;-24188.59;5014411;28;20639;-67
2023/03/20 08:36:20;;;;;;;13.50;7.13;;;;;;;13.32;nan;-24188.72;5014736;28;20666;-69
2023/03/20 08:38:47;;;;;;;11.75;7.95;;;;;;;13.77;nan;-24201.38;5014334;28;20176;-68
2023/03/20 08:41:13;;;;;;;14.23;6.95;;;;;;;14.05;nan;-24209.09;5014230;28;20192;-68
2023/03/20 08:43:38;;;;;;;14.55;7.40;;;;;;;13.88;nan;-24204.31;5014342;28;20172;-68
2023/03/20 08:46:04;;;;;;;11.73;6.45;;;;;;;13.72;nan;-24199.97;5014292;28;20604;-68
2023/03/20 08:48:29;;;;;;;17.15;8.48;;;;;;;13.50;nan;-24193.78;5014134;28;20208;-68
2023/03/20 08:50:55;;;;;;;23.35;8.75;;;;;;;13.94;nan;-24206.13;5014339;28;20283;-68
2023/03/20 08:53:20;;;;;;;18.70;9.75;;;;;;;13.92;nan;-24205.56;5014153;28;20662;-68
2023/03/20 08:55:48;;;;;;;19.48;9.30;;;;;;;13.83;nan;-24203.03;5014020;28;20172;-68
2023/03/20 08:58:13;;;;;;;18.40;8.65;;;;;;;14.40;nan;-24218.75;5014342;28;20699;-70
2023/03/20 09:00:39;;;;;;;22.60;8.60;;;;;;;14.26;nan;-24214.97;5046310;28;20190;-69
2023/03/20 09:03:04;;;;;;;20.00;9.23;;;;;;;14.50;nan;-24221.72;5014372;28;20200;-68
2023/03/20 09:05:30;;;;;;;16.77;8.40;;;;;;;15.07;nan;-24237.28;5014512;28;20263;-68
2023/03/20 09:07:55;;;;;;;17.63;8.52;;;;;;;15.09;nan;-24237.81;5012548;28;20172;-68
2023/03/20 09:10:21;;;;;;;17.33;8.23;;;;;;;14.96;nan;-24234.47;5014503;28;20180;-69
2023/03/20 09:12:46;;;;;;;23.70;8.70;;;;;;;15.46;nan;-24248.34;5013866;28;20164;-68
2023/03/20 09:15:12;;;;;;;20.67;9.40;;;;;;;14.93;nan;-24233.63;5014178;28;20617;-70
2023/03/20 09:17:37;;;;;;;18.38;8.55;;;;;;;14.38;nan;-24218.22;5013938;28;20171;-68
2023/03/20 09:20:03;;;;;;;17.25;9.00;;;;;;;14.31;nan;-24216.38;5013863;28;20199;-68
2023/03/20 09:22:28;;;;;;;19.00;8.02;;;;;;;14.24;nan;-24214.41;5014027;28;20211;-69
2023/03/20 09:24:54;;;;;;;17.23;9.13;;;;;;;14.02;nan;-24208.25;5014273;28;20474;-69
2023/03/20 09:27:20;;;;;;;16.42;8.25;;;;;;;14.70;nan;-24227.19;5013752;28;20183;-69
2023/03/20 09:29:45;;;;;;;18.40;8.35;;;;;;;14.48;nan;-24221.16;5013894;28;20671;-69
2023/03/20 09:32:13;;;;;;;15.23;7.75;;;;;;;14.96;nan;-24234.31;5013812;28;20296;-69
2023/03/20 09:34:38;;;;;;;21.98;9.00;;;;;;;14.97;nan;-24234.59;5013689;28;20289;-69
2023/03/20 09:37:04;;;;;;;16.55;8.07;;;;;;;14.54;nan;-24222.69;5045332;28;20219;-68
2023/03/20 09:39:29;;;;;;;16.23;8.35;;;;;;;14.31;nan;-24216.22;5013631;28;20168;-70
2023/03/20 09:42:01;;;;;;;18.10;8.80;;;;;;;14.90;nan;-24232.63;5013790;28;20183;-69
2023/03/20 09:45:02;;;;;;;26.25;9.05;;;;;;;15.46;nan;-24248.19;5012927;28;20165;-70
2023/03/20 09:47:33;;;;;;;15.48;8.50;;;;;;;15.35;nan;-24245.25;5012322;28;20210;-69
2023/03/20 09:50:14;;;;;;;16.40;8.07;;;;;;;15.33;nan;-24244.56;5013225;28;20196;-68
2023/03/20 09:52:54;;;;;;;15.05;7.47;;;;;;;15.15;nan;-24239.66;5012970;28;20531;-69
2023/03/20 09:55:28;;;;;;;15.18;8.25;;;;;;;15.65;nan;-24253.38;5013244;28;20172;-68
2023/03/20 09:57:58;;;;;;;15.00;7.93;;;;;;;15.92;nan;-24260.94;5003800;28;20232;-68
2023/03/20 10:00:27;;;;;;;13.13;6.53;;;;;;;15.65;nan;-24253.38;5011952;28;20180;-69
2023/03/20 10:03:05;;;;;;;16.05;7.03;;;;;;;15.70;nan;-24254.78;5006698;28;20263;-68
2023/03/20 10:05:38;;;;;;;16.48;7.32;;;;;;;16.11;nan;-24266.09;5011585;28;20184;-68
2023/03/20 10:08:11;;;;;;;15.93;6.78;;;;;;;16.02;nan;-24263.59;5012378;28;20180;-67
2023/03/20 10:10:39;;;;;;;16.50;7.03;;;;;;;15.95;nan;-24261.78;5012947;28;20626;-69
2023/03/20 10:13:09;;;;;;;16.77;7.38;;;;;;;15.56;nan;-24251.00;5012647;28;20282;-68
2023/03/20 10:15:40;;;;;;;13.80;6.95;;;;;;;16.06;nan;-24264.84;5012340;28;20175;-69
2023/03/20 10:18:21;;;;;;;12.13;6.30;;;;;;;15.59;nan;-24251.84;5012696;28;20168;-68
2023/03/20 10:20:55;;;;;;;12.40;5.97;;;;;;;15.85;nan;-24259.13;5012338;28;20168;-69
2023/03/20 10:23:29;;;;;;;9.60;5.80;;;;;;;16.54;nan;-24278.13;5013045;28;20180;-68
2023/03/20 10:26:13;;;;;;;13.10;5.65;;;;;;;16.35;nan;-24272.81;5012458;28;20229;-69
2023/03/20 10:28:42;;;;;;;14.25;6.55;;;;;;;16.43;nan;-24275.06;5012045;28;20168;-68
2023/03/20 10:31:30;;;;;;;15.80;6.68;;;;;;;16.29;nan;-24271.28;5011875;28;20557;-68
2023/03/20 10:34:29;;;;;;;11.45;6.30;;;;;;;16.45;nan;-24275.47;5011856;28;20300;-69
2023/03/20 10:36:54;;;;;;;15.18;5.70;;;;;;;16.58;nan;-24279.13;5011600;28;20175;-68
2023/03/20 10:39:49;;;;;;;9.00;5.07;;;;;;;16.52;nan;-24277.44;5012143;28;20168;-69
2023/03/20 10:42:27;;;;;;;10.20;5.22;;;;;;;16.62;nan;-24280.22;5012658;28;20216;-69
2023/03/20 10:45:06;;;;;;;11.75;6.10;;;;;;;16.65;nan;-24281.06;5012376;28;20638;-69
2023/03/20 10:47:41;;;;;;;10.45;6.03;;;;;;;16.23;nan;-24269.59;5011861;28;20291;-69
2023/03/20 10:50:15;;;;;;;11.70;6.03;;;;;;;16.44;nan;-24275.34;5011819;28;20270;-68
2023/03/20 10:52:41;;;;;;;12.45;5.80;;;;;;;16.79;nan;-24284.97;5012310;28;20646;-69
2023/03/20 10:55:21;;;;;;;10.65;5.57;;;;;;;16.87;nan;-24287.06;5012124;28;20179;-69
2023/03/20 10:58:21;;;;;;;11.68;5.55;;;;;;;17.09;nan;-24293.22;5011692;28;20227;-69
2023/03/20 11:00:46;;;;;;;9.18;4.40;;;;;;;16.87;nan;-24287.06;5012684;28;20658;-67
2023/03/20 11:03:20;;;;;;;11.93;5.30;;;;;;;16.28;nan;-24270.84;5011972;28;20214;-69
2023/03/20 11:05:49;;;;;;;17.67;5.35;;;;;;;17.26;nan;-24297.81;5011959;28;20164;-67
2023/03/20 11:08:15;;;;;;;8.95;4.65;;;;;;;17.30;nan;-24298.94;5011894;28;20230;-70
2023/03/20 11:10:42;;;;;;;11.15;4.95;;;;;;;17.53;nan;-24305.34;5011930;28;20168;-68
2023/03/20 11:13:18;;;;;;;9.45;4.32;;;;;;;17.02;nan;-24291.41;5012121;28;20230;-67
2023/03/20 11:15:43;;;;;;;14.27;4.90;;;;;;;17.10;nan;-24293.63;5011853;28;20180;-68
2023/03/20 11:18:12;;;;;;;9.45;4.57;;;;;;;17.25;nan;-24297.56;5011679;28;20207;-69
2023/03/20 11:21:00;;;;;;;10.15;4.90;;;;;;;17.62;nan;-24308.00;5011532;28;20525;-68
2023/03/20 11:23:31;;;;;;;6.93;4.28;;;;;;;17.36;nan;-24300.75;5011591;28;20183;-68
2023/03/20 11:26:11;;;;;;;6.00;3.70;;;;;;;17.57;nan;-24306.63;5011611;28;20750;-69
2023/03/20 11:28:46;;;;;;;8.68;4.60;;;;;;;18.03;nan;-24319.31;5011484;28;20199;-67
2023/03/20 11:31:15;;;;;;;8.60;3.90;;;;;;;17.66;nan;-24309.00;5010921;28;20167;-68
2023/03/20 11:33:52;;;;;;;7.88;4.38;;;;;;;17.70;nan;-24309.97;5011736;28;20713;-68
2023/03/20 11:36:28;;;;;;;5.63;3.33;;;;;;;17.73;nan;-24310.94;5011797;28;20171;-70
2023/03/20 11:39:04;;;;;;;5.90;3.60;;;;;;;17.47;nan;-24303.81;5011920;28;20160;-69
2023/03/20 11:41:30;;;;;;;9.00;4.03;;;;;;;17.19;nan;-24296.16;5011131;28;20258;-69
2023/03/20 11:43:55;;;;;;;7.10;4.13;;;;;;;17.82;nan;-24313.31;5010854;28;20229;-69
2023/03/20 11:46:23;;;;;;;6.22;4.03;;;;;;;17.38;nan;-24301.31;5011252;28;20175;-68
2023/03/20 11:49:17;;;;;;;7.68;3.55;;;;;;;17.60;nan;-24307.47;5011291;28;20175;-68
2023/03/20 11:51:43;;;;;;;6.50;3.80;;;;;;;17.43;nan;-24302.56;5012095;28;20612;-68
2023/03/20 11:54:18;;;;;;;7.38;3.80;;;;;;;17.79;nan;-24312.47;5011123;28;20208;-69